sensor_id;sensor_type;location;lat;lon;timestamp;temperature;humidity
70734;DHT22;58320;48.804;9.252;2023-02-28T00:00:33;-2.00;62.10
70734;DHT22;58320;48.804;9.252;2023-02-28T00:03:00;-2.10;62.20
70734;DHT22;58320;48.804;9.252;2023-02-28T00:05:27;-2.10;62.60
70734;DHT22;58320;48.804;9.252;2023-02-28T00:07:54;-2.10;62.90
70734;DHT22;58320;48.804;9.252;2023-02-28T00:10:22;-2.10;63.20
70734;DHT22;58320;48.804;9.252;2023-02-28T00:12:54;-2.20;63.00
70734;DHT22;58320;48.804;9.252;2023-02-28T00:15:22;-2.20;62.80
70734;DHT22;58320;48.804;9.252;2023-02-28T00:17:49;-2.20;63.20
70734;DHT22;58320;48.804;9.252;2023-02-28T00:20:15;-2.20;63.20
70734;DHT22;58320;48.804;9.252;2023-02-28T00:22:43;-2.20;63.10
70734;DHT22;58320;48.804;9.252;2023-02-28T00:25:12;-2.20;63.20
70734;DHT22;58320;48.804;9.252;2023-02-28T00:27:40;-2.20;63.30
70734;DHT22;58320;48.804;9.252;2023-02-28T00:30:09;-2.20;63.40
70734;DHT22;58320;48.804;9.252;2023-02-28T00:32:38;-2.20;63.50
70734;DHT22;58320;48.804;9.252;2023-02-28T00:35:05;-2.20;63.70
70734;DHT22;58320;48.804;9.252;2023-02-28T00:37:32;-2.20;63.70
70734;DHT22;58320;48.804;9.252;2023-02-28T00:39:57;-2.30;63.60
70734;DHT22;58320;48.804;9.252;2023-02-28T00:42:23;-2.30;64.00
70734;DHT22;58320;48.804;9.252;2023-02-28T00:44:49;-2.30;64.10
70734;DHT22;58320;48.804;9.252;2023-02-28T00:47:15;-2.30;64.80
70734;DHT22;58320;48.804;9.252;2023-02-28T00:49:41;-2.30;64.50
70734;DHT22;58320;48.804;9.252;2023-02-28T00:52:07;-2.30;64.50
70734;DHT22;58320;48.804;9.252;2023-02-28T00:54:33;-2.40;64.80
70734;DHT22;58320;48.804;9.252;2023-02-28T00:56:59;-2.30;64.70
70734;DHT22;58320;48.804;9.252;2023-02-28T00:59:25;-2.30;64.80
70734;DHT22;58320;48.804;9.252;2023-02-28T01:01:51;-2.30;64.60
70734;DHT22;58320;48.804;9.252;2023-02-28T01:04:17;-2.40;64.90
70734;DHT22;58320;48.804;9.252;2023-02-28T01:06:43;-2.40;65.30
70734;DHT22;58320;48.804;9.252;2023-02-28T01:09:09;-2.40;65.50
70734;DHT22;58320;48.804;9.252;2023-02-28T01:11:35;-2.40;65.70
70734;DHT22;58320;48.804;9.252;2023-02-28T01:14:01;-2.40;66.10
70734;DHT22;58320;48.804;9.252;2023-02-28T01:16:29;-2.40;66.00
70734;DHT22;58320;48.804;9.252;2023-02-28T01:18:55;-2.40;66.30
70734;DHT22;58320;48.804;9.252;2023-02-28T01:21:21;-2.40;66.30
70734;DHT22;58320;48.804;9.252;2023-02-28T01:23:48;-2.40;66.40
70734;DHT22;58320;48.804;9.252;2023-02-28T01:26:16;-2.40;66.60
70734;DHT22;58320;48.804;9.252;2023-02-28T01:28:48;-2.40;66.50
70734;DHT22;58320;48.804;9.252;2023-02-28T01:31:15;-2.40;66.90
70734;DHT22;58320;48.804;9.252;2023-02-28T01:33:41;-2.40;67.00
70734;DHT22;58320;48.804;9.252;2023-02-28T01:36:13;-2.40;67.30
70734;DHT22;58320;48.804;9.252;2023-02-28T01:38:41;-2.40;67.50
70734;DHT22;58320;48.804;9.252;2023-02-28T01:41:07;-2.40;67.60
70734;DHT22;58320;48.804;9.252;2023-02-28T01:46:11;-2.40;67.70
70734;DHT22;58320;48.804;9.252;2023-02-28T01:48:45;-2.40;68.00
70734;DHT22;58320;48.804;9.252;2023-02-28T01:51:29;-2.40;68.30
70734;DHT22;58320;48.804;9.252;2023-02-28T01:54:11;-2.40;68.20
70734;DHT22;58320;48.804;9.252;2023-02-28T01:56:55;-2.40;68.20
70734;DHT22;58320;48.804;9.252;2023-02-28T02:00:07;-2.40;68.40
70734;DHT22;58320;48.804;9.252;2023-02-28T02:02:27;-2.40;68.50
70734;DHT22;58320;48.804;9.252;2023-02-28T02:04:59;-2.40;68.50
70734;DHT22;58320;48.804;9.252;2023-02-28T02:07:37;-2.40;68.50
70734;DHT22;58320;48.804;9.252;2023-02-28T02:18:43;-2.30;68.90
70734;DHT22;58320;48.804;9.252;2023-02-28T02:27:22;-2.30;69.10
70734;DHT22;58320;48.804;9.252;2023-02-28T02:36:18;-2.20;69.40
70734;DHT22;58320;48.804;9.252;2023-02-28T02:39:07;-2.20;69.60
70734;DHT22;58320;48.804;9.252;2023-02-28T02:44:42;-2.10;69.80
70734;DHT22;58320;48.804;9.252;2023-02-28T02:47:15;-2.10;69.60
70734;DHT22;58320;48.804;9.252;2023-02-28T02:49:48;-2.00;69.80
70734;DHT22;58320;48.804;9.252;2023-02-28T02:52:20;-2.00;69.50
70734;DHT22;58320;48.804;9.252;2023-02-28T02:54:49;-2.00;69.80
70734;DHT22;58320;48.804;9.252;2023-02-28T02:57:32;-2.00;69.80
70734;DHT22;58320;48.804;9.252;2023-02-28T03:00:02;-2.00;69.70
70734;DHT22;58320;48.804;9.252;2023-02-28T03:02:32;-2.00;70.00
70734;DHT22;58320;48.804;9.252;2023-02-28T03:05:02;-1.90;70.00
70734;DHT22;58320;48.804;9.252;2023-02-28T03:07:45;-1.90;69.80
70734;DHT22;58320;48.804;9.252;2023-02-28T03:10:31;-1.90;69.80
70734;DHT22;58320;48.804;9.252;2023-02-28T03:28:39;-1.60;70.00
70734;DHT22;58320;48.804;9.252;2023-02-28T03:31:17;-1.60;70.10
70734;DHT22;58320;48.804;9.252;2023-02-28T03:34:08;-1.60;69.80
70734;DHT22;58320;48.804;9.252;2023-02-28T03:36:38;-1.60;69.90
70734;DHT22;58320;48.804;9.252;2023-02-28T03:39:24;-1.60;69.90
70734;DHT22;58320;48.804;9.252;2023-02-28T03:41:59;-1.60;70.20
70734;DHT22;58320;48.804;9.252;2023-02-28T03:44:32;-1.60;70.00
70734;DHT22;58320;48.804;9.252;2023-02-28T03:47:03;-1.60;70.30
70734;DHT22;58320;48.804;9.252;2023-02-28T03:49:42;-1.50;70.30
70734;DHT22;58320;48.804;9.252;2023-02-28T03:52:13;-1.50;70.00
70734;DHT22;58320;48.804;9.252;2023-02-28T03:54:49;-1.40;70.20
70734;DHT22;58320;48.804;9.252;2023-02-28T04:00:34;-1.40;69.80
70734;DHT22;58320;48.804;9.252;2023-02-28T04:03:04;-1.40;69.80
70734;DHT22;58320;48.804;9.252;2023-02-28T04:05:30;-1.30;69.80
70734;DHT22;58320;48.804;9.252;2023-02-28T04:08:07;-1.40;69.70
70734;DHT22;58320;48.804;9.252;2023-02-28T04:10:33;-1.30;69.60
70734;DHT22;58320;48.804;9.252;2023-02-28T04:12:59;-1.30;69.70
70734;DHT22;58320;48.804;9.252;2023-02-28T04:15:25;-1.20;69.40
70734;DHT22;58320;48.804;9.252;2023-02-28T04:17:52;-1.20;69.00
70734;DHT22;58320;48.804;9.252;2023-02-28T04:20:18;-1.30;69.10
70734;DHT22;58320;48.804;9.252;2023-02-28T04:22:44;-1.20;69.30
70734;DHT22;58320;48.804;9.252;2023-02-28T04:25:10;-1.20;69.40
70734;DHT22;58320;48.804;9.252;2023-02-28T04:27:35;-1.20;68.90
70734;DHT22;58320;48.804;9.252;2023-02-28T04:30:01;-1.20;68.70
70734;DHT22;58320;48.804;9.252;2023-02-28T04:32:27;-1.20;68.90
70734;DHT22;58320;48.804;9.252;2023-02-28T04:34:53;-1.20;68.90
70734;DHT22;58320;48.804;9.252;2023-02-28T04:37:19;-1.10;69.10
70734;DHT22;58320;48.804;9.252;2023-02-28T04:39:44;-1.10;68.80
70734;DHT22;58320;48.804;9.252;2023-02-28T04:42:11;-1.10;68.70
70734;DHT22;58320;48.804;9.252;2023-02-28T04:44:37;-1.00;68.40
70734;DHT22;58320;48.804;9.252;2023-02-28T04:47:03;-1.10;68.60
70734;DHT22;58320;48.804;9.252;2023-02-28T04:49:29;-1.00;68.80
70734;DHT22;58320;48.804;9.252;2023-02-28T04:51:55;-1.00;68.70
70734;DHT22;58320;48.804;9.252;2023-02-28T04:54:21;-1.00;68.80
70734;DHT22;58320;48.804;9.252;2023-02-28T04:56:47;-1.00;68.80
70734;DHT22;58320;48.804;9.252;2023-02-28T04:59:15;-1.00;68.90
70734;DHT22;58320;48.804;9.252;2023-02-28T05:01:40;-1.00;68.90
70734;DHT22;58320;48.804;9.252;2023-02-28T05:04:11;-1.00;68.90
70734;DHT22;58320;48.804;9.252;2023-02-28T05:06:37;-0.90;68.80
70734;DHT22;58320;48.804;9.252;2023-02-28T05:09:03;-0.90;68.70
70734;DHT22;58320;48.804;9.252;2023-02-28T05:11:31;-0.90;68.80
70734;DHT22;58320;48.804;9.252;2023-02-28T05:14:05;-0.90;68.60
70734;DHT22;58320;48.804;9.252;2023-02-28T05:16:40;-0.90;68.90
70734;DHT22;58320;48.804;9.252;2023-02-28T05:19:06;-0.90;69.00
70734;DHT22;58320;48.804;9.252;2023-02-28T05:21:37;-0.90;68.80
70734;DHT22;58320;48.804;9.252;2023-02-28T05:24:11;-0.90;68.80
70734;DHT22;58320;48.804;9.252;2023-02-28T05:26:42;-0.90;69.00
70734;DHT22;58320;48.804;9.252;2023-02-28T05:29:09;-0.90;68.70
70734;DHT22;58320;48.804;9.252;2023-02-28T05:31:35;-0.90;69.00
70734;DHT22;58320;48.804;9.252;2023-02-28T05:34:02;-0.90;69.00
70734;DHT22;58320;48.804;9.252;2023-02-28T05:36:30;-0.80;68.80
70734;DHT22;58320;48.804;9.252;2023-02-28T05:38:55;-0.80;68.80
70734;DHT22;58320;48.804;9.252;2023-02-28T05:41:22;-0.80;69.00
70734;DHT22;58320;48.804;9.252;2023-02-28T05:43:48;-0.80;69.10
70734;DHT22;58320;48.804;9.252;2023-02-28T05:46:14;-0.80;69.30
70734;DHT22;58320;48.804;9.252;2023-02-28T05:48:41;-0.80;69.50
70734;DHT22;58320;48.804;9.252;2023-02-28T05:51:08;-0.80;69.50
70734;DHT22;58320;48.804;9.252;2023-02-28T05:53:35;-0.80;69.30
70734;DHT22;58320;48.804;9.252;2023-02-28T05:56:01;-0.80;69.50
70734;DHT22;58320;48.804;9.252;2023-02-28T05:58:27;-0.80;69.60
70734;DHT22;58320;48.804;9.252;2023-02-28T06:00:59;-0.80;69.50
70734;DHT22;58320;48.804;9.252;2023-02-28T06:03:26;-0.70;69.20
70734;DHT22;58320;48.804;9.252;2023-02-28T06:05:53;-0.80;69.20
70734;DHT22;58320;48.804;9.252;2023-02-28T06:08:19;-0.80;69.20
70734;DHT22;58320;48.804;9.252;2023-02-28T06:10:44;-0.80;69.20
70734;DHT22;58320;48.804;9.252;2023-02-28T06:13:11;-0.70;69.40
70734;DHT22;58320;48.804;9.252;2023-02-28T06:15:38;-0.70;69.30
70734;DHT22;58320;48.804;9.252;2023-02-28T06:18:04;-0.70;69.20
70734;DHT22;58320;48.804;9.252;2023-02-28T06:20:30;-0.70;68.90
70734;DHT22;58320;48.804;9.252;2023-02-28T06:22:56;-0.70;69.10
70734;DHT22;58320;48.804;9.252;2023-02-28T06:25:24;-0.60;69.20
70734;DHT22;58320;48.804;9.252;2023-02-28T06:27:50;-0.60;68.80
70734;DHT22;58320;48.804;9.252;2023-02-28T06:30:16;-0.60;68.70
70734;DHT22;58320;48.804;9.252;2023-02-28T06:32:42;-0.60;68.60
70734;DHT22;58320;48.804;9.252;2023-02-28T06:35:08;-0.60;68.70
70734;DHT22;58320;48.804;9.252;2023-02-28T06:37:34;-0.50;68.50
70734;DHT22;58320;48.804;9.252;2023-02-28T06:40:00;-0.50;68.50
70734;DHT22;58320;48.804;9.252;2023-02-28T06:42:25;-0.40;68.00
70734;DHT22;58320;48.804;9.252;2023-02-28T06:44:55;-0.40;67.40
70734;DHT22;58320;48.804;9.252;2023-02-28T06:47:21;-0.40;67.70
70734;DHT22;58320;48.804;9.252;2023-02-28T06:49:47;-0.40;67.70
70734;DHT22;58320;48.804;9.252;2023-02-28T06:52:14;-0.40;67.60
70734;DHT22;58320;48.804;9.252;2023-02-28T06:54:40;-0.40;67.70
70734;DHT22;58320;48.804;9.252;2023-02-28T06:57:06;-0.30;67.00
70734;DHT22;58320;48.804;9.252;2023-02-28T06:59:32;-0.30;66.90
70734;DHT22;58320;48.804;9.252;2023-02-28T07:02:00;-0.30;66.50
70734;DHT22;58320;48.804;9.252;2023-02-28T07:04:28;-0.20;66.80
70734;DHT22;58320;48.804;9.252;2023-02-28T07:06:55;-0.10;66.60
70734;DHT22;58320;48.804;9.252;2023-02-28T07:09:22;0.00;66.10
70734;DHT22;58320;48.804;9.252;2023-02-28T07:11:48;0.00;66.00
70734;DHT22;58320;48.804;9.252;2023-02-28T07:14:14;0.20;65.60
70734;DHT22;58320;48.804;9.252;2023-02-28T07:16:40;0.20;65.20
70734;DHT22;58320;48.804;9.252;2023-02-28T07:19:06;0.20;65.30
70734;DHT22;58320;48.804;9.252;2023-02-28T07:21:31;0.20;65.00
70734;DHT22;58320;48.804;9.252;2023-02-28T07:23:57;0.30;64.90
70734;DHT22;58320;48.804;9.252;2023-02-28T07:26:23;0.30;64.60
70734;DHT22;58320;48.804;9.252;2023-02-28T07:28:49;0.40;64.30
70734;DHT22;58320;48.804;9.252;2023-02-28T07:31:16;0.30;63.70
70734;DHT22;58320;48.804;9.252;2023-02-28T07:33:43;0.30;64.20
70734;DHT22;58320;48.804;9.252;2023-02-28T07:36:11;0.30;63.20
70734;DHT22;58320;48.804;9.252;2023-02-28T07:38:42;0.20;62.70
70734;DHT22;58320;48.804;9.252;2023-02-28T07:41:09;0.20;63.30
70734;DHT22;58320;48.804;9.252;2023-02-28T07:43:35;0.20;62.80
70734;DHT22;58320;48.804;9.252;2023-02-28T07:46:06;0.30;63.20
70734;DHT22;58320;48.804;9.252;2023-02-28T07:48:36;0.40;63.10
70734;DHT22;58320;48.804;9.252;2023-02-28T07:51:02;0.50;62.50
70734;DHT22;58320;48.804;9.252;2023-02-28T07:53:29;0.50;61.80
70734;DHT22;58320;48.804;9.252;2023-02-28T07:55:59;0.50;61.90
70734;DHT22;58320;48.804;9.252;2023-02-28T07:58:27;0.50;61.80
70734;DHT22;58320;48.804;9.252;2023-02-28T08:00:54;0.40;62.00
70734;DHT22;58320;48.804;9.252;2023-02-28T08:03:21;0.40;61.90
70734;DHT22;58320;48.804;9.252;2023-02-28T08:05:48;0.30;62.00
70734;DHT22;58320;48.804;9.252;2023-02-28T08:08:15;0.40;62.20
70734;DHT22;58320;48.804;9.252;2023-02-28T08:10:42;0.50;62.20
70734;DHT22;58320;48.804;9.252;2023-02-28T08:13:07;0.60;61.10
70734;DHT22;58320;48.804;9.252;2023-02-28T08:15:33;0.50;61.50
70734;DHT22;58320;48.804;9.252;2023-02-28T08:17:59;0.60;61.80
70734;DHT22;58320;48.804;9.252;2023-02-28T08:20:25;0.80;61.40
70734;DHT22;58320;48.804;9.252;2023-02-28T08:22:52;0.90;60.90
70734;DHT22;58320;48.804;9.252;2023-02-28T08:25:18;0.80;60.40
70734;DHT22;58320;48.804;9.252;2023-02-28T08:27:44;0.80;60.50
70734;DHT22;58320;48.804;9.252;2023-02-28T08:30:11;0.80;60.60
70734;DHT22;58320;48.804;9.252;2023-02-28T08:32:38;0.90;60.50
70734;DHT22;58320;48.804;9.252;2023-02-28T08:35:05;0.90;60.30
70734;DHT22;58320;48.804;9.252;2023-02-28T08:37:31;0.90;60.00
70734;DHT22;58320;48.804;9.252;2023-02-28T08:39:57;1.00;60.30
70734;DHT22;58320;48.804;9.252;2023-02-28T08:42:23;1.00;59.70
70734;DHT22;58320;48.804;9.252;2023-02-28T08:44:49;1.00;60.00
70734;DHT22;58320;48.804;9.252;2023-02-28T08:47:15;1.10;59.70
70734;DHT22;58320;48.804;9.252;2023-02-28T08:49:41;1.20;59.50
70734;DHT22;58320;48.804;9.252;2023-02-28T08:52:07;1.20;59.20
70734;DHT22;58320;48.804;9.252;2023-02-28T08:54:33;1.30;58.70
70734;DHT22;58320;48.804;9.252;2023-02-28T08:57:00;1.20;58.60
70734;DHT22;58320;48.804;9.252;2023-02-28T08:59:25;1.10;59.00
70734;DHT22;58320;48.804;9.252;2023-02-28T09:01:51;1.00;59.10
70734;DHT22;58320;48.804;9.252;2023-02-28T09:04:17;1.00;59.50
70734;DHT22;58320;48.804;9.252;2023-02-28T09:06:43;1.20;59.50
70734;DHT22;58320;48.804;9.252;2023-02-28T09:09:09;1.30;58.70
70734;DHT22;58320;48.804;9.252;2023-02-28T09:11:36;1.30;58.30
70734;DHT22;58320;48.804;9.252;2023-02-28T09:14:02;1.40;58.40
70734;DHT22;58320;48.804;9.252;2023-02-28T09:16:29;1.50;58.10
70734;DHT22;58320;48.804;9.252;2023-02-28T09:18:56;1.70;57.50
70734;DHT22;58320;48.804;9.252;2023-02-28T09:21:22;1.60;57.60
70734;DHT22;58320;48.804;9.252;2023-02-28T09:23:49;1.60;57.50
70734;DHT22;58320;48.804;9.252;2023-02-28T09:26:18;1.40;57.60
70734;DHT22;58320;48.804;9.252;2023-02-28T09:28:45;1.50;57.90
70734;DHT22;58320;48.804;9.252;2023-02-28T09:31:17;1.80;57.60
70734;DHT22;58320;48.804;9.252;2023-02-28T09:33:51;1.90;56.90
70734;DHT22;58320;48.804;9.252;2023-02-28T09:36:18;2.10;56.20
70734;DHT22;58320;48.804;9.252;2023-02-28T09:38:45;2.10;56.50
70734;DHT22;58320;48.804;9.252;2023-02-28T09:41:36;2.20;56.10
70734;DHT22;58320;48.804;9.252;2023-02-28T09:44:30;2.20;55.10
70734;DHT22;58320;48.804;9.252;2023-02-28T09:47:15;1.90;55.80
70734;DHT22;58320;48.804;9.252;2023-02-28T09:49:46;2.10;55.80
70734;DHT22;58320;48.804;9.252;2023-02-28T09:52:23;2.30;55.70
70734;DHT22;58320;48.804;9.252;2023-02-28T09:54:55;2.30;55.00
70734;DHT22;58320;48.804;9.252;2023-02-28T10:00:10;2.70;55.00
70734;DHT22;58320;48.804;9.252;2023-02-28T10:03:02;2.80;54.30
70734;DHT22;58320;48.804;9.252;2023-02-28T10:05:42;2.80;53.60
70734;DHT22;58320;48.804;9.252;2023-02-28T10:08:19;2.90;53.70
70734;DHT22;58320;48.804;9.252;2023-02-28T10:10:54;2.90;53.10
70734;DHT22;58320;48.804;9.252;2023-02-28T10:16:14;2.90;53.10
70734;DHT22;58320;48.804;9.252;2023-02-28T10:21:59;2.80;53.30
70734;DHT22;58320;48.804;9.252;2023-02-28T10:29:46;3.00;53.20
70734;DHT22;58320;48.804;9.252;2023-02-28T10:32:19;3.10;52.30
70734;DHT22;58320;48.804;9.252;2023-02-28T10:34:57;3.10;53.20
70734;DHT22;58320;48.804;9.252;2023-02-28T10:37:25;3.20;51.90
70734;DHT22;58320;48.804;9.252;2023-02-28T10:39:52;3.10;52.60
70734;DHT22;58320;48.804;9.252;2023-02-28T10:42:25;3.30;52.60
70734;DHT22;58320;48.804;9.252;2023-02-28T10:45:06;3.80;50.90
70734;DHT22;58320;48.804;9.252;2023-02-28T10:47:55;4.10;51.10
70734;DHT22;58320;48.804;9.252;2023-02-28T11:01:16;5.30;47.50
70734;DHT22;58320;48.804;9.252;2023-02-28T11:03:43;5.60;47.30
70734;DHT22;58320;48.804;9.252;2023-02-28T11:06:19;5.50;47.10
70734;DHT22;58320;48.804;9.252;2023-02-28T11:08:58;5.70;46.20
70734;DHT22;58320;48.804;9.252;2023-02-28T11:11:28;6.00;46.50
70734;DHT22;58320;48.804;9.252;2023-02-28T11:14:02;6.10;44.60
70734;DHT22;58320;48.804;9.252;2023-02-28T11:16:37;6.40;45.90
70734;DHT22;58320;48.804;9.252;2023-02-28T11:19:06;7.20;43.30
70734;DHT22;58320;48.804;9.252;2023-02-28T11:21:55;7.40;42.60
70734;DHT22;58320;48.804;9.252;2023-02-28T11:24:39;7.50;42.00
70734;DHT22;58320;48.804;9.252;2023-02-28T11:29:56;7.80;41.70
70734;DHT22;58320;48.804;9.252;2023-02-28T11:32:28;8.10;41.50
70734;DHT22;58320;48.804;9.252;2023-02-28T11:35:21;8.30;40.60
70734;DHT22;58320;48.804;9.252;2023-02-28T11:37:50;8.30;40.80
70734;DHT22;58320;48.804;9.252;2023-02-28T11:40:19;9.40;39.50
70734;DHT22;58320;48.804;9.252;2023-02-28T11:46:39;11.30;36.30
70734;DHT22;58320;48.804;9.252;2023-02-28T11:49:27;12.20;34.90
70734;DHT22;58320;48.804;9.252;2023-02-28T11:55:05;11.30;35.60
70734;DHT22;58320;48.804;9.252;2023-02-28T12:03:39;11.60;35.20
70734;DHT22;58320;48.804;9.252;2023-02-28T12:06:22;11.10;36.20
70734;DHT22;58320;48.804;9.252;2023-02-28T12:12:54;11.10;36.20
70734;DHT22;58320;48.804;9.252;2023-02-28T12:21:34;11.20;35.80
70734;DHT22;58320;48.804;9.252;2023-02-28T12:24:40;11.60;35.80
70734;DHT22;58320;48.804;9.252;2023-02-28T12:27:15;12.50;33.60
70734;DHT22;58320;48.804;9.252;2023-02-28T12:29:57;12.20;34.00
70734;DHT22;58320;48.804;9.252;2023-02-28T12:32:37;12.60;34.10
70734;DHT22;58320;48.804;9.252;2023-02-28T12:35:13;12.90;33.20
70734;DHT22;58320;48.804;9.252;2023-02-28T12:37:46;11.80;34.10
70734;DHT22;58320;48.804;9.252;2023-02-28T12:40:23;11.70;34.30
70734;DHT22;58320;48.804;9.252;2023-02-28T12:42:58;12.00;33.90
70734;DHT22;58320;48.804;9.252;2023-02-28T12:45:49;12.20;34.40
70734;DHT22;58320;48.804;9.252;2023-02-28T12:48:41;12.50;33.00
70734;DHT22;58320;48.804;9.252;2023-02-28T12:51:08;12.70;33.30
70734;DHT22;58320;48.804;9.252;2023-02-28T12:57:14;12.20;33.80
70734;DHT22;58320;48.804;9.252;2023-02-28T12:59:52;13.00;33.30
70734;DHT22;58320;48.804;9.252;2023-02-28T13:08:36;14.00;31.30
70734;DHT22;58320;48.804;9.252;2023-02-28T13:11:31;14.00;31.50
70734;DHT22;58320;48.804;9.252;2023-02-28T13:14:05;14.10;31.80
70734;DHT22;58320;48.804;9.252;2023-02-28T13:19:56;13.70;31.40
70734;DHT22;58320;48.804;9.252;2023-02-28T13:28:11;12.40;33.50
70734;DHT22;58320;48.804;9.252;2023-02-28T13:33:33;13.10;32.80
70734;DHT22;58320;48.804;9.252;2023-02-28T13:38:49;12.20;33.80
70734;DHT22;58320;48.804;9.252;2023-02-28T14:06:33;10.70;36.40
70734;DHT22;58320;48.804;9.252;2023-02-28T14:18:21;10.80;35.00
70734;DHT22;58320;48.804;9.252;2023-02-28T14:27:28;11.40;34.60
70734;DHT22;58320;48.804;9.252;2023-02-28T14:33:22;11.40;34.90
70734;DHT22;58320;48.804;9.252;2023-02-28T14:38:44;10.90;36.30
70734;DHT22;58320;48.804;9.252;2023-02-28T14:41:35;11.50;34.80
70734;DHT22;58320;48.804;9.252;2023-02-28T14:46:46;10.50;36.20
70734;DHT22;58320;48.804;9.252;2023-02-28T14:49:30;10.50;36.50
70734;DHT22;58320;48.804;9.252;2023-02-28T14:52:17;11.10;35.90
70734;DHT22;58320;48.804;9.252;2023-02-28T14:54:45;11.70;34.50
70734;DHT22;58320;48.804;9.252;2023-02-28T14:57:33;12.10;34.30
70734;DHT22;58320;48.804;9.252;2023-02-28T15:02:41;11.60;34.80
70734;DHT22;58320;48.804;9.252;2023-02-28T15:07:38;12.00;34.10
70734;DHT22;58320;48.804;9.252;2023-02-28T15:12:37;11.70;34.50
70734;DHT22;58320;48.804;9.252;2023-02-28T15:15:05;11.50;35.20
70734;DHT22;58320;48.804;9.252;2023-02-28T15:17:33;11.20;35.50
70734;DHT22;58320;48.804;9.252;2023-02-28T15:19:59;10.90;36.00
70734;DHT22;58320;48.804;9.252;2023-02-28T15:22:35;10.80;36.00
70734;DHT22;58320;48.804;9.252;2023-02-28T15:25:02;10.40;36.80
70734;DHT22;58320;48.804;9.252;2023-02-28T15:27:32;9.70;37.50
70734;DHT22;58320;48.804;9.252;2023-02-28T15:30:08;9.80;37.90
70734;DHT22;58320;48.804;9.252;2023-02-28T15:32:39;10.20;37.50
70734;DHT22;58320;48.804;9.252;2023-02-28T15:35:28;10.20;37.30
70734;DHT22;58320;48.804;9.252;2023-02-28T15:38:12;10.10;37.90
70734;DHT22;58320;48.804;9.252;2023-02-28T15:40:44;10.00;37.50
70734;DHT22;58320;48.804;9.252;2023-02-28T15:46:05;9.10;38.90
70734;DHT22;58320;48.804;9.252;2023-02-28T15:48:34;8.90;39.40
70734;DHT22;58320;48.804;9.252;2023-02-28T15:54:02;8.40;40.40
70734;DHT22;58320;48.804;9.252;2023-02-28T15:56:49;8.10;41.00
70734;DHT22;58320;48.804;9.252;2023-02-28T15:59:23;8.00;40.90
70734;DHT22;58320;48.804;9.252;2023-02-28T16:04:35;8.10;41.20
70734;DHT22;58320;48.804;9.252;2023-02-28T16:07:03;8.40;41.00
70734;DHT22;58320;48.804;9.252;2023-02-28T16:09:30;8.70;40.50
70734;DHT22;58320;48.804;9.252;2023-02-28T16:12:00;8.80;40.50
70734;DHT22;58320;48.804;9.252;2023-02-28T16:14:28;8.80;40.20
70734;DHT22;58320;48.804;9.252;2023-02-28T16:17:08;8.10;41.00
70734;DHT22;58320;48.804;9.252;2023-02-28T16:19:42;7.60;42.10
70734;DHT22;58320;48.804;9.252;2023-02-28T16:22:09;7.40;42.70
70734;DHT22;58320;48.804;9.252;2023-02-28T16:24:35;7.20;42.90
70734;DHT22;58320;48.804;9.252;2023-02-28T16:27:01;7.00;43.30
70734;DHT22;58320;48.804;9.252;2023-02-28T16:29:30;6.90;43.50
70734;DHT22;58320;48.804;9.252;2023-02-28T16:31:57;6.60;44.30
70734;DHT22;58320;48.804;9.252;2023-02-28T16:34:24;6.50;44.40
70734;DHT22;58320;48.804;9.252;2023-02-28T16:36:49;6.40;44.80
70734;DHT22;58320;48.804;9.252;2023-02-28T16:39:15;6.30;44.80
70734;DHT22;58320;48.804;9.252;2023-02-28T16:41:45;6.10;45.20
70734;DHT22;58320;48.804;9.252;2023-02-28T16:44:27;6.00;45.60
70734;DHT22;58320;48.804;9.252;2023-02-28T16:46:54;6.00;45.80
70734;DHT22;58320;48.804;9.252;2023-02-28T16:49:20;5.80;46.20
70734;DHT22;58320;48.804;9.252;2023-02-28T16:51:46;5.60;46.60
70734;DHT22;58320;48.804;9.252;2023-02-28T16:54:12;5.40;47.10
70734;DHT22;58320;48.804;9.252;2023-02-28T16:56:41;5.20;47.30
70734;DHT22;58320;48.804;9.252;2023-02-28T16:59:10;5.00;48.10
70734;DHT22;58320;48.804;9.252;2023-02-28T17:01:37;4.80;48.50
70734;DHT22;58320;48.804;9.252;2023-02-28T17:04:02;4.70;48.70
70734;DHT22;58320;48.804;9.252;2023-02-28T17:06:29;4.50;49.30
70734;DHT22;58320;48.804;9.252;2023-02-28T17:08:56;4.30;49.50
70734;DHT22;58320;48.804;9.252;2023-02-28T17:11:23;4.20;50.30
70734;DHT22;58320;48.804;9.252;2023-02-28T17:13:49;4.10;50.40
70734;DHT22;58320;48.804;9.252;2023-02-28T17:16:29;4.00;50.80
70734;DHT22;58320;48.804;9.252;2023-02-28T17:19:02;3.90;51.10
70734;DHT22;58320;48.804;9.252;2023-02-28T17:21:30;3.80;51.50
70734;DHT22;58320;48.804;9.252;2023-02-28T17:23:57;3.70;52.00
70734;DHT22;58320;48.804;9.252;2023-02-28T17:26:26;3.60;52.50
70734;DHT22;58320;48.804;9.252;2023-02-28T17:28:54;3.60;52.70
70734;DHT22;58320;48.804;9.252;2023-02-28T17:31:25;3.50;52.70
70734;DHT22;58320;48.804;9.252;2023-02-28T17:33:52;3.40;52.80
70734;DHT22;58320;48.804;9.252;2023-02-28T17:36:25;3.30;53.20
70734;DHT22;58320;48.804;9.252;2023-02-28T17:38:52;3.30;53.40
70734;DHT22;58320;48.804;9.252;2023-02-28T17:41:20;3.20;53.80
70734;DHT22;58320;48.804;9.252;2023-02-28T17:43:46;3.10;54.00
70734;DHT22;58320;48.804;9.252;2023-02-28T17:46:21;3.10;54.40
70734;DHT22;58320;48.804;9.252;2023-02-28T17:48:48;3.00;54.40
70734;DHT22;58320;48.804;9.252;2023-02-28T17:51:16;2.90;54.60
70734;DHT22;58320;48.804;9.252;2023-02-28T17:53:43;2.90;54.80
70734;DHT22;58320;48.804;9.252;2023-02-28T17:56:15;2.80;55.20
70734;DHT22;58320;48.804;9.252;2023-02-28T17:58:43;2.70;55.80
70734;DHT22;58320;48.804;9.252;2023-02-28T18:01:09;2.60;56.00
70734;DHT22;58320;48.804;9.252;2023-02-28T18:03:35;2.60;56.10
70734;DHT22;58320;48.804;9.252;2023-02-28T18:06:01;2.50;56.40
70734;DHT22;58320;48.804;9.252;2023-02-28T18:08:27;2.50;56.70
70734;DHT22;58320;48.804;9.252;2023-02-28T18:10:53;2.40;57.10
70734;DHT22;58320;48.804;9.252;2023-02-28T18:13:19;2.30;57.20
70734;DHT22;58320;48.804;9.252;2023-02-28T18:15:45;2.30;57.40
70734;DHT22;58320;48.804;9.252;2023-02-28T18:18:10;2.20;57.60
70734;DHT22;58320;48.804;9.252;2023-02-28T18:20:36;2.20;57.70
70734;DHT22;58320;48.804;9.252;2023-02-28T18:23:02;2.10;57.90
70734;DHT22;58320;48.804;9.252;2023-02-28T18:25:28;2.00;58.30
70734;DHT22;58320;48.804;9.252;2023-02-28T18:27:54;2.00;58.70
70734;DHT22;58320;48.804;9.252;2023-02-28T18:30:25;1.90;58.90
70734;DHT22;58320;48.804;9.252;2023-02-28T18:32:53;1.90;59.10
70734;DHT22;58320;48.804;9.252;2023-02-28T18:35:18;1.90;59.20
70734;DHT22;58320;48.804;9.252;2023-02-28T18:38:00;1.80;59.30
70734;DHT22;58320;48.804;9.252;2023-02-28T18:40:31;1.80;59.40
70734;DHT22;58320;48.804;9.252;2023-02-28T18:42:57;1.70;59.80
70734;DHT22;58320;48.804;9.252;2023-02-28T18:45:23;1.70;60.00
70734;DHT22;58320;48.804;9.252;2023-02-28T18:47:48;1.60;60.10
70734;DHT22;58320;48.804;9.252;2023-02-28T18:50:14;1.60;60.30
70734;DHT22;58320;48.804;9.252;2023-02-28T18:52:40;1.60;60.50
70734;DHT22;58320;48.804;9.252;2023-02-28T18:55:06;1.50;60.70
70734;DHT22;58320;48.804;9.252;2023-02-28T18:57:33;1.50;60.90
70734;DHT22;58320;48.804;9.252;2023-02-28T18:59:59;1.40;61.10
70734;DHT22;58320;48.804;9.252;2023-02-28T19:02:25;1.30;61.60